Two Harbors, MN

12:59 AM CST on November 19, 2017 (GMT -0600)
Helgeson

Weather History for KTWM - April, 2014

Change the Weather History Date:

Wednesday, April 16, 2014

  Actual Average Record
Temperature  
Mean Temperature 22 °F -  
Max Temperature 28 °F 50 °F 73 °F (2016)
Min Temperature 17 °F 32 °F 17 °F (2014)
Degree Days  
Heating Degree Days 42    
Moisture  
Dew Point 16 °F    
Average Humidity 71    
Maximum Humidity 86    
Minimum Humidity 47    
Precipitation  
Precipitation 0.08 in - - ()
Sea Level Pressure  
Sea Level Pressure 30.13 in    
Wind  
Wind Speed 8 mph (NE)    
Max Wind Speed 20 mph    
Max Gust Speed 32 mph    
Visibility 5 miles    
Events Snow    
Averages and records for this station are not official NWS values.
T = Trace of Precipitation, MM = Missing Value Source: NWS Daily Summary

Daily Weather History Graph

Daily Weather History Graph

Search for Another Location

Airport or City:

Trip Planner

Search our weather history database for the weather conditions in past years. The results will help you decide how hot, cold, wet, or windy it might be!

Date:

Astronomy

Apr. 16, 2014 Rise Set
Actual Time 6:17 AM CDT 7:57 PM CDT
Civil Twilight 5:45 AM CDT 8:29 PM CDT
Nautical Twilight 5:06 AM CDT 9:08 PM CDT
Astronomical Twilight 4:23 AM CDT 9:51 PM CDT
Moon 9:47 PM CDT (4/16) 7:00 AM CDT (4/16)
Length of Visible Light 14h 44m
Length of Day
13h 39m
Full, 98% of the Moon is Illuminated
Apr 16
Full
Apr 22
Last Quarter
Apr 29
New
May 6
First Quarter
May 14
Full

Hourly Weather History & Observations

Time (CDT) Temp. Windchill Dew Point Humidity Pressure Visibility Wind Dir Wind Speed Gust Speed Precip Events Conditions
12:13 AM 17.6 °F - 10.4 °F 73% 30.09 in 10.0 mi Calm Calm - N/A   Clear
12:33 AM 19.4 °F 14.3 °F 8.6 °F 63% 30.09 in 10.0 mi North 3.5 mph - N/A   Clear
12:54 AM 17.6 °F - 8.6 °F 68% 30.09 in 10.0 mi Calm Calm - N/A   Clear
1:13 AM 17.6 °F 12.3 °F 8.6 °F 68% 30.09 in 10.0 mi North 3.5 mph - N/A   Clear
1:33 AM 17.6 °F - 8.6 °F 68% 30.10 in 10.0 mi Calm Calm - N/A   Clear
1:54 AM 17.6 °F 10.7 °F 10.4 °F 73% 30.10 in 10.0 mi NNE 4.6 mph - N/A   Clear
2:13 AM 19.4 °F 14.3 °F 6.8 °F 58% 30.10 in 10.0 mi NNE 3.5 mph - N/A   Clear
2:33 AM 17.6 °F 10.7 °F 8.6 °F 68% 30.10 in 10.0 mi NNE 4.6 mph - N/A   Clear
2:54 AM 19.4 °F 12.8 °F 6.8 °F 58% 30.10 in 10.0 mi NNE 4.6 mph - N/A   Clear
3:13 AM 19.4 °F 12.8 °F 6.8 °F 58% 30.10 in 10.0 mi NNE 4.6 mph - N/A   Clear
3:33 AM 19.4 °F 12.8 °F 5.0 °F 54% 30.09 in 10.0 mi NNE 4.6 mph - N/A   Clear
3:53 AM 21.2 °F 14.9 °F 5.0 °F 50% 30.10 in 10.0 mi NNE 4.6 mph - N/A   Clear
4:13 AM 21.2 °F 16.4 °F 5.0 °F 50% 30.10 in 10.0 mi NNE 3.5 mph - N/A   Clear
4:34 AM 21.2 °F 16.4 °F 6.8 °F 54% 30.11 in 10.0 mi NNE 3.5 mph - N/A   Clear
4:54 AM 21.2 °F 16.4 °F 6.8 °F 54% 30.11 in 10.0 mi NNE 3.5 mph - N/A   Clear
5:13 AM 21.2 °F 14.9 °F 6.8 °F 54% 30.11 in 10.0 mi NNE 4.6 mph - N/A   Clear
5:33 AM 21.2 °F 14.9 °F 8.6 °F 58% 30.11 in 10.0 mi NE 4.6 mph - N/A   Mostly Cloudy
5:53 AM 23.0 °F 15.8 °F 10.4 °F 59% 30.12 in 10.0 mi NE 5.8 mph - N/A   Overcast
6:13 AM 23.0 °F 17.0 °F 10.4 °F 59% 30.12 in 1.0 mi NE 4.6 mph - N/A   Overcast
6:33 AM 23.0 °F 17.0 °F 10.4 °F 59% 30.12 in 10.0 mi NE 4.6 mph - N/A   Overcast
6:53 AM 24.8 °F 16.9 °F 12.2 °F 59% 30.12 in 10.0 mi NE 6.9 mph - N/A   Scattered Clouds
7:13 AM 24.8 °F 19.1 °F 12.2 °F 59% 30.13 in 10.0 mi NE 4.6 mph - N/A   Mostly Cloudy
7:33 AM 24.8 °F - 14.0 °F 64% 30.14 in 10.0 mi North - - N/A   Overcast
7:53 AM 24.8 °F 16.9 °F 14.0 °F 64% 30.14 in 10.0 mi NE 6.9 mph - N/A   Mostly Cloudy
8:13 AM 26.6 °F 16.8 °F 14.0 °F 59% 30.15 in 10.0 mi ENE 10.4 mph - N/A   Mostly Cloudy
8:33 AM 26.6 °F 16.8 °F 15.8 °F 64% 30.15 in 10.0 mi ENE 10.4 mph - N/A   Overcast
8:53 AM 26.6 °F 17.5 °F 15.8 °F 64% 30.15 in 10.0 mi ENE 9.2 mph - N/A   Mostly Cloudy
9:13 AM 28.4 °F 20.4 °F 14.0 °F 55% 30.15 in 10.0 mi ENE 8.1 mph - N/A   Scattered Clouds
9:33 AM 28.4 °F 18.5 °F 14.0 °F 55% 30.16 in 10.0 mi East 11.5 mph - N/A   Scattered Clouds
9:53 AM 28.4 °F 18.0 °F 12.2 °F 51% 30.15 in 10.0 mi ENE 12.7 mph 16.1 mph N/A   Mostly Cloudy
10:13 AM 28.4 °F 17.5 °F 10.4 °F 47% 30.15 in 10.0 mi East 13.8 mph 20.7 mph N/A   Overcast
10:33 AM 28.4 °F 17.5 °F 14.0 °F 55% 30.16 in 10.0 mi East 13.8 mph - N/A   Overcast
10:53 AM 28.4 °F 16.6 °F 17.6 °F 64% 30.16 in 10.0 mi East 16.1 mph 19.6 mph N/A   Overcast
11:13 AM 28.4 °F 18.5 °F 17.6 °F 64% 30.16 in 10.0 mi East 11.5 mph 17.3 mph N/A   Overcast
11:33 AM 26.6 °F 16.2 °F 17.6 °F 69% 30.17 in 5.0 mi ESE 11.5 mph 21.9 mph N/A Snow Light Snow
11:53 AM 26.6 °F 16.8 °F 19.4 °F 74% 30.17 in 2.0 mi ESE 10.4 mph - N/A Snow Light Snow
12:13 PM 26.6 °F 16.8 °F 21.2 °F 80% 30.16 in 1.5 mi East 10.4 mph - N/A Snow Light Snow
12:33 PM 26.6 °F 14.7 °F 21.2 °F 80% 30.15 in 1.8 mi East 15.0 mph 19.6 mph N/A Snow Light Snow
1:13 PM 24.8 °F 13.4 °F 19.4 °F 80% 30.14 in 1.2 mi ENE 12.7 mph 23.0 mph N/A Snow Light Snow
1:33 PM 24.8 °F 12.4 °F 19.4 °F 80% 30.15 in 1.0 mi ENE 15.0 mph - N/A Snow Light Snow
1:53 PM 24.8 °F 12.9 °F 19.4 °F 80% 30.15 in 0.8 mi ENE 13.8 mph - N/A Snow Light Snow
2:12 PM 24.8 °F 12.4 °F 21.2 °F 86% 30.14 in 0.5 mi ENE 15.0 mph 19.6 mph N/A Snow Light Snow
2:31 PM 26.6 °F 15.2 °F 21.2 °F 80% 30.13 in 0.8 mi ENE 13.8 mph 19.6 mph 0.01 in Snow Light Snow
2:53 PM 26.6 °F 13.4 °F 21.2 °F 80% 30.13 in 1.0 mi ENE 18.4 mph 23.0 mph 0.01 in Snow Light Snow
3:13 PM 26.6 °F 13.1 °F 21.2 °F 80% 30.13 in 0.8 mi ENE 19.6 mph 23.0 mph N/A Snow Light Snow
3:33 PM 26.6 °F 14.7 °F 21.2 °F 80% 30.13 in 0.8 mi ENE 15.0 mph 19.6 mph N/A Snow Light Snow
3:53 PM 26.6 °F 15.7 °F 21.2 °F 80% 30.14 in 0.5 mi ENE 12.7 mph 20.7 mph 0.01 in Snow Snow
4:13 PM 26.6 °F 16.2 °F 21.2 °F 80% 30.13 in 0.5 mi ENE 11.5 mph 20.7 mph 0.01 in Snow Snow
4:53 PM 26.6 °F 15.2 °F 21.2 °F 80% 30.14 in 0.5 mi NE 13.8 mph 20.7 mph 0.02 in Snow Light Snow
5:13 PM 26.6 °F 15.2 °F 21.2 °F 80% 30.14 in 0.8 mi ENE 13.8 mph 26.5 mph N/A Snow Light Snow
5:34 PM 26.6 °F 14.3 °F 21.2 °F 80% 30.14 in 0.5 mi NE 16.1 mph 21.9 mph 0.01 in Snow Light Snow
5:53 PM 26.6 °F 15.2 °F 21.2 °F 80% 30.14 in 0.5 mi ENE 13.8 mph 28.8 mph 0.01 in Snow Light Snow
6:13 PM 26.6 °F 13.8 °F 21.2 °F 80% 30.15 in 0.8 mi ENE 17.3 mph 24.2 mph N/A Snow Light Snow
6:34 PM 24.8 °F 12.4 °F 21.2 °F 86% 30.14 in 0.8 mi ENE 15.0 mph 32.2 mph 0.01 in Snow Light Snow
6:53 PM 24.8 °F 11.9 °F 19.4 °F 80% 30.15 in 0.8 mi ENE 16.1 mph 23.0 mph 0.01 in Snow Light Snow
7:13 PM 24.8 °F 11.9 °F 19.4 °F 80% 30.15 in 1.0 mi NE 16.1 mph 23.0 mph N/A Snow Light Snow
7:34 PM 24.8 °F 12.9 °F 19.4 °F 80% 30.15 in 1.2 mi ENE 13.8 mph 24.2 mph N/A Snow Light Snow
7:53 PM 24.8 °F 12.9 °F 21.2 °F 86% 30.15 in 1.0 mi ENE 13.8 mph 21.9 mph N/A Snow Light Snow
8:13 PM 24.8 °F 11.9 °F 21.2 °F 86% 30.15 in 1.5 mi NE 16.1 mph 24.2 mph 0.01 in Snow Light Snow
8:34 PM 24.8 °F 12.9 °F 21.2 °F 86% 30.15 in 1.5 mi NE 13.8 mph 24.2 mph 0.01 in Snow Light Snow
8:53 PM 24.8 °F 11.9 °F 21.2 °F 86% 30.16 in 1.5 mi ENE 16.1 mph 21.9 mph 0.01 in Snow Light Snow
9:13 PM 26.6 °F 14.7 °F 21.2 °F 80% 30.15 in 1.5 mi NE 15.0 mph 23.0 mph 0.01 in Snow Light Snow
9:34 PM 26.6 °F 14.7 °F 21.2 °F 80% 30.15 in 1.8 mi ENE 15.0 mph 26.5 mph 0.01 in Snow Light Snow
9:53 PM 26.6 °F 13.1 °F 21.2 °F 80% 30.15 in 3.0 mi ENE 19.6 mph 26.5 mph 0.01 in Snow Light Snow
10:13 PM 26.6 °F 15.2 °F 21.2 °F 80% 30.15 in 2.0 mi ENE 13.8 mph 27.6 mph N/A Snow Light Snow
10:34 PM 24.8 °F 11.5 °F 21.2 °F 86% 30.15 in 1.5 mi ENE 17.3 mph 25.3 mph N/A Snow Light Snow
10:53 PM 26.6 °F 13.8 °F 21.2 °F 80% 30.14 in 2.0 mi ENE 17.3 mph 24.2 mph N/A Snow Light Snow
11:13 PM 26.6 °F 13.4 °F 21.2 °F 80% 30.14 in 2.5 mi NE 18.4 mph 25.3 mph N/A Snow Light Snow
11:34 PM 26.6 °F 16.2 °F 21.2 °F 80% 30.14 in 2.5 mi NE 11.5 mph 23.0 mph N/A Snow Light Snow
11:53 PM 26.6 °F 15.2 °F 21.2 °F 80% 30.14 in 2.0 mi NE 13.8 mph 21.9 mph N/A Snow Light Snow